sensor_id;sensor_type;location;lat;lon;timestamp;temperature;humidity
43015;DHT22;28637;50.554;7.032;2024-02-04T00:00:47;9.30;99.90
43015;DHT22;28637;50.554;7.032;2024-02-04T00:05:48;9.20;99.90
43015;DHT22;28637;50.554;7.032;2024-02-04T00:10:48;9.20;99.90
43015;DHT22;28637;50.554;7.032;2024-02-04T00:15:49;9.20;99.90
43015;DHT22;28637;50.554;7.032;2024-02-04T00:20:50;9.20;99.90
43015;DHT22;28637;50.554;7.032;2024-02-04T00:25:50;9.20;99.90
43015;DHT22;28637;50.554;7.032;2024-02-04T00:30:51;9.20;99.90
43015;DHT22;28637;50.554;7.032;2024-02-04T00:35:55;9.20;99.90
43015;DHT22;28637;50.554;7.032;2024-02-04T00:40:56;9.20;99.90
43015;DHT22;28637;50.554;7.032;2024-02-04T00:45:57;9.20;99.90
43015;DHT22;28637;50.554;7.032;2024-02-04T00:51:00;9.20;99.90
43015;DHT22;28637;50.554;7.032;2024-02-04T00:56:04;9.20;99.90
43015;DHT22;28637;50.554;7.032;2024-02-04T01:01:05;9.10;99.90
43015;DHT22;28637;50.554;7.032;2024-02-04T01:06:06;9.10;99.90
43015;DHT22;28637;50.554;7.032;2024-02-04T01:11:06;9.10;99.90
43015;DHT22;28637;50.554;7.032;2024-02-04T01:16:07;9.00;99.90
43015;DHT22;28637;50.554;7.032;2024-02-04T01:21:08;9.10;99.90
43015;DHT22;28637;50.554;7.032;2024-02-04T01:26:09;9.10;99.90
43015;DHT22;28637;50.554;7.032;2024-02-04T01:31:10;9.00;99.90
43015;DHT22;28637;50.554;7.032;2024-02-04T01:36:11;9.10;99.90
43015;DHT22;28637;50.554;7.032;2024-02-04T01:41:12;9.00;99.90
43015;DHT22;28637;50.554;7.032;2024-02-04T01:46:12;9.00;99.90
43015;DHT22;28637;50.554;7.032;2024-02-04T01:51:16;9.00;99.90
43015;DHT22;28637;50.554;7.032;2024-02-04T01:56:17;9.00;99.90
43015;DHT22;28637;50.554;7.032;2024-02-04T02:01:19;9.00;99.90
43015;DHT22;28637;50.554;7.032;2024-02-04T02:06:20;9.00;99.90
43015;DHT22;28637;50.554;7.032;2024-02-04T02:11:27;9.10;99.90
43015;DHT22;28637;50.554;7.032;2024-02-04T02:16:33;9.10;99.90
43015;DHT22;28637;50.554;7.032;2024-02-04T02:21:56;9.10;99.90
43015;DHT22;28637;50.554;7.032;2024-02-04T02:26:57;9.10;99.90
43015;DHT22;28637;50.554;7.032;2024-02-04T02:32:00;9.10;99.90
43015;DHT22;28637;50.554;7.032;2024-02-04T02:37:16;9.10;99.90
43015;DHT22;28637;50.554;7.032;2024-02-04T02:42:20;9.10;99.90
43015;DHT22;28637;50.554;7.032;2024-02-04T02:47:23;9.10;99.90
43015;DHT22;28637;50.554;7.032;2024-02-04T02:52:24;9.10;99.90
43015;DHT22;28637;50.554;7.032;2024-02-04T02:57:25;9.10;99.90
43015;DHT22;28637;50.554;7.032;2024-02-04T03:02:25;9.20;99.90
43015;DHT22;28637;50.554;7.032;2024-02-04T03:07:26;9.20;99.90
43015;DHT22;28637;50.554;7.032;2024-02-04T03:12:26;9.20;99.90
43015;DHT22;28637;50.554;7.032;2024-02-04T03:17:27;9.20;99.90
43015;DHT22;28637;50.554;7.032;2024-02-04T03:22:28;9.20;99.90
43015;DHT22;28637;50.554;7.032;2024-02-04T03:27:28;9.20;99.90
43015;DHT22;28637;50.554;7.032;2024-02-04T03:32:29;9.20;99.90
43015;DHT22;28637;50.554;7.032;2024-02-04T03:37:34;9.20;99.90
43015;DHT22;28637;50.554;7.032;2024-02-04T03:42:34;9.20;99.90
43015;DHT22;28637;50.554;7.032;2024-02-04T03:47:35;9.20;99.90
43015;DHT22;28637;50.554;7.032;2024-02-04T03:52:56;9.20;99.90
43015;DHT22;28637;50.554;7.032;2024-02-04T03:57:58;9.20;99.90
43015;DHT22;28637;50.554;7.032;2024-02-04T04:02:58;9.20;99.90
43015;DHT22;28637;50.554;7.032;2024-02-04T04:07:59;9.20;99.90
43015;DHT22;28637;50.554;7.032;2024-02-04T04:18:50;9.30;99.90
43015;DHT22;28637;50.554;7.032;2024-02-04T04:23:51;9.30;99.90
43015;DHT22;28637;50.554;7.032;2024-02-04T04:28:52;9.30;99.90
43015;DHT22;28637;50.554;7.032;2024-02-04T04:34:10;9.30;99.90
43015;DHT22;28637;50.554;7.032;2024-02-04T04:39:11;9.40;99.90
43015;DHT22;28637;50.554;7.032;2024-02-04T04:44:11;9.30;99.90
43015;DHT22;28637;50.554;7.032;2024-02-04T04:49:12;9.30;99.90
43015;DHT22;28637;50.554;7.032;2024-02-04T04:54:15;9.30;99.90
43015;DHT22;28637;50.554;7.032;2024-02-04T04:59:16;9.30;99.90
43015;DHT22;28637;50.554;7.032;2024-02-04T05:04:17;9.40;99.90
43015;DHT22;28637;50.554;7.032;2024-02-04T05:09:19;9.30;99.90
43015;DHT22;28637;50.554;7.032;2024-02-04T05:14:19;9.30;99.90
43015;DHT22;28637;50.554;7.032;2024-02-04T05:19:20;9.40;99.90
43015;DHT22;28637;50.554;7.032;2024-02-04T05:24:21;9.40;99.90
43015;DHT22;28637;50.554;7.032;2024-02-04T05:29:22;9.40;99.90
43015;DHT22;28637;50.554;7.032;2024-02-04T05:34:22;9.40;99.90
43015;DHT22;28637;50.554;7.032;2024-02-04T05:39:23;9.40;99.90
43015;DHT22;28637;50.554;7.032;2024-02-04T05:44:24;9.50;99.90
43015;DHT22;28637;50.554;7.032;2024-02-04T05:49:25;9.50;99.90
43015;DHT22;28637;50.554;7.032;2024-02-04T05:54:26;9.50;99.90
43015;DHT22;28637;50.554;7.032;2024-02-04T05:59:26;9.50;99.90
43015;DHT22;28637;50.554;7.032;2024-02-04T06:04:27;9.50;99.90
43015;DHT22;28637;50.554;7.032;2024-02-04T06:09:28;9.60;99.90
43015;DHT22;28637;50.554;7.032;2024-02-04T06:14:29;9.60;99.90
43015;DHT22;28637;50.554;7.032;2024-02-04T06:19:29;9.70;99.90
43015;DHT22;28637;50.554;7.032;2024-02-04T06:24:30;9.70;99.90
43015;DHT22;28637;50.554;7.032;2024-02-04T06:29:32;9.60;99.90
43015;DHT22;28637;50.554;7.032;2024-02-04T06:34:35;9.60;99.90
43015;DHT22;28637;50.554;7.032;2024-02-04T06:39:37;9.60;99.90
43015;DHT22;28637;50.554;7.032;2024-02-04T06:44:38;9.70;99.90
43015;DHT22;28637;50.554;7.032;2024-02-04T06:49:38;9.60;99.90
43015;DHT22;28637;50.554;7.032;2024-02-04T06:54:39;9.60;99.90
43015;DHT22;28637;50.554;7.032;2024-02-04T06:59:40;9.60;99.90
43015;DHT22;28637;50.554;7.032;2024-02-04T07:04:40;9.70;99.90
43015;DHT22;28637;50.554;7.032;2024-02-04T07:09:41;9.70;99.90
43015;DHT22;28637;50.554;7.032;2024-02-04T07:14:42;9.70;99.90
43015;DHT22;28637;50.554;7.032;2024-02-04T07:19:43;9.60;99.90
43015;DHT22;28637;50.554;7.032;2024-02-04T07:24:43;9.60;99.90
43015;DHT22;28637;50.554;7.032;2024-02-04T07:29:44;9.60;99.90
43015;DHT22;28637;50.554;7.032;2024-02-04T07:34:45;9.60;99.90
43015;DHT22;28637;50.554;7.032;2024-02-04T07:39:45;9.60;99.90
43015;DHT22;28637;50.554;7.032;2024-02-04T07:44:47;9.60;99.90
43015;DHT22;28637;50.554;7.032;2024-02-04T07:49:48;9.50;99.90
43015;DHT22;28637;50.554;7.032;2024-02-04T07:54:49;9.50;99.90
43015;DHT22;28637;50.554;7.032;2024-02-04T07:59:50;9.50;99.90
43015;DHT22;28637;50.554;7.032;2024-02-04T08:04:51;9.50;99.90
43015;DHT22;28637;50.554;7.032;2024-02-04T08:09:53;9.50;99.90
43015;DHT22;28637;50.554;7.032;2024-02-04T08:14:54;9.50;99.90
43015;DHT22;28637;50.554;7.032;2024-02-04T08:19:55;9.60;99.90
43015;DHT22;28637;50.554;7.032;2024-02-04T08:24:55;9.60;99.90
43015;DHT22;28637;50.554;7.032;2024-02-04T08:29:56;9.80;99.90
43015;DHT22;28637;50.554;7.032;2024-02-04T08:34:57;9.80;99.90
43015;DHT22;28637;50.554;7.032;2024-02-04T08:39:57;9.90;99.90
43015;DHT22;28637;50.554;7.032;2024-02-04T08:44:58;9.90;99.90
43015;DHT22;28637;50.554;7.032;2024-02-04T08:49:59;9.90;99.90
43015;DHT22;28637;50.554;7.032;2024-02-04T08:55:00;10.00;99.90
43015;DHT22;28637;50.554;7.032;2024-02-04T09:00:00;10.10;99.90
43015;DHT22;28637;50.554;7.032;2024-02-04T09:05:01;10.10;99.90
43015;DHT22;28637;50.554;7.032;2024-02-04T09:10:03;10.30;99.90
43015;DHT22;28637;50.554;7.032;2024-02-04T09:15:04;10.30;99.90
43015;DHT22;28637;50.554;7.032;2024-02-04T09:20:05;10.30;99.90
43015;DHT22;28637;50.554;7.032;2024-02-04T09:25:06;10.30;99.90
43015;DHT22;28637;50.554;7.032;2024-02-04T09:30:07;10.30;99.90
43015;DHT22;28637;50.554;7.032;2024-02-04T09:35:08;10.30;99.90
43015;DHT22;28637;50.554;7.032;2024-02-04T09:40:10;10.40;99.90
43015;DHT22;28637;50.554;7.032;2024-02-04T09:45:13;10.40;99.90
43015;DHT22;28637;50.554;7.032;2024-02-04T09:50:15;10.50;99.90
43015;DHT22;28637;50.554;7.032;2024-02-04T09:55:16;10.60;99.90
43015;DHT22;28637;50.554;7.032;2024-02-04T10:00:21;10.70;99.90
43015;DHT22;28637;50.554;7.032;2024-02-04T10:05:21;10.80;99.90
43015;DHT22;28637;50.554;7.032;2024-02-04T10:10:22;10.90;99.90
43015;DHT22;28637;50.554;7.032;2024-02-04T10:15:23;10.90;99.90
43015;DHT22;28637;50.554;7.032;2024-02-04T10:20:23;10.90;99.90
43015;DHT22;28637;50.554;7.032;2024-02-04T10:25:24;10.90;99.90
43015;DHT22;28637;50.554;7.032;2024-02-04T10:30:25;10.90;99.90
43015;DHT22;28637;50.554;7.032;2024-02-04T10:35:25;10.90;99.90
43015;DHT22;28637;50.554;7.032;2024-02-04T10:40:26;11.00;99.90
43015;DHT22;28637;50.554;7.032;2024-02-04T10:45:30;11.20;99.90
43015;DHT22;28637;50.554;7.032;2024-02-04T10:50:35;11.40;99.90
43015;DHT22;28637;50.554;7.032;2024-02-04T10:55:43;11.50;99.90
43015;DHT22;28637;50.554;7.032;2024-02-04T11:00:45;11.60;99.90
43015;DHT22;28637;50.554;7.032;2024-02-04T11:05:46;11.70;99.90
43015;DHT22;28637;50.554;7.032;2024-02-04T11:10:49;11.70;99.90
43015;DHT22;28637;50.554;7.032;2024-02-04T11:15:50;11.80;99.90
43015;DHT22;28637;50.554;7.032;2024-02-04T11:25:56;11.70;99.90
43015;DHT22;28637;50.554;7.032;2024-02-04T11:30:58;11.70;99.90
43015;DHT22;28637;50.554;7.032;2024-02-04T11:36:05;11.70;99.90
43015;DHT22;28637;50.554;7.032;2024-02-04T11:41:07;11.70;99.90
43015;DHT22;28637;50.554;7.032;2024-02-04T11:46:16;11.70;99.90
43015;DHT22;28637;50.554;7.032;2024-02-04T11:51:22;11.70;99.90
43015;DHT22;28637;50.554;7.032;2024-02-04T11:56:24;11.60;99.90
43015;DHT22;28637;50.554;7.032;2024-02-04T12:01:24;11.50;99.90
43015;DHT22;28637;50.554;7.032;2024-02-04T12:06:25;11.40;99.90
43015;DHT22;28637;50.554;7.032;2024-02-04T12:11:27;11.40;99.90
43015;DHT22;28637;50.554;7.032;2024-02-04T12:16:28;11.50;99.90
43015;DHT22;28637;50.554;7.032;2024-02-04T12:21:29;11.50;99.90
43015;DHT22;28637;50.554;7.032;2024-02-04T12:26:30;11.50;99.90
43015;DHT22;28637;50.554;7.032;2024-02-04T12:31:31;11.60;99.90
43015;DHT22;28637;50.554;7.032;2024-02-04T12:36:33;11.70;99.90
43015;DHT22;28637;50.554;7.032;2024-02-04T12:41:34;11.80;99.90
43015;DHT22;28637;50.554;7.032;2024-02-04T12:46:35;11.70;99.90
43015;DHT22;28637;50.554;7.032;2024-02-04T12:51:36;11.70;99.90
43015;DHT22;28637;50.554;7.032;2024-02-04T12:56:50;11.70;99.90
43015;DHT22;28637;50.554;7.032;2024-02-04T13:01:55;11.60;99.90
43015;DHT22;28637;50.554;7.032;2024-02-04T13:06:56;11.60;99.90
43015;DHT22;28637;50.554;7.032;2024-02-04T13:12:07;11.60;99.90
43015;DHT22;28637;50.554;7.032;2024-02-04T13:17:09;11.50;99.90
43015;DHT22;28637;50.554;7.032;2024-02-04T13:22:10;11.50;99.90
43015;DHT22;28637;50.554;7.032;2024-02-04T13:27:11;11.40;99.90
43015;DHT22;28637;50.554;7.032;2024-02-04T13:32:11;11.40;99.90
43015;DHT22;28637;50.554;7.032;2024-02-04T13:37:12;11.50;99.90
43015;DHT22;28637;50.554;7.032;2024-02-04T13:42:13;11.40;99.90
43015;DHT22;28637;50.554;7.032;2024-02-04T13:47:14;11.40;99.90
43015;DHT22;28637;50.554;7.032;2024-02-04T13:52:14;11.40;99.90
43015;DHT22;28637;50.554;7.032;2024-02-04T13:57:15;11.40;99.90
43015;DHT22;28637;50.554;7.032;2024-02-04T14:02:16;11.40;99.90
43015;DHT22;28637;50.554;7.032;2024-02-04T14:07:16;11.50;99.90
43015;DHT22;28637;50.554;7.032;2024-02-04T14:12:17;11.50;99.90
43015;DHT22;28637;50.554;7.032;2024-02-04T14:17:18;11.50;99.90
43015;DHT22;28637;50.554;7.032;2024-02-04T14:22:19;11.50;99.90
43015;DHT22;28637;50.554;7.032;2024-02-04T14:27:20;11.50;99.90
43015;DHT22;28637;50.554;7.032;2024-02-04T14:32:21;11.50;99.90
43015;DHT22;28637;50.554;7.032;2024-02-04T14:37:22;11.50;99.90
43015;DHT22;28637;50.554;7.032;2024-02-04T14:42:22;11.50;99.90
43015;DHT22;28637;50.554;7.032;2024-02-04T14:47:23;11.50;99.90
43015;DHT22;28637;50.554;7.032;2024-02-04T14:52:24;11.90;99.90
43015;DHT22;28637;50.554;7.032;2024-02-04T14:57:24;11.90;99.90
43015;DHT22;28637;50.554;7.032;2024-02-04T15:02:25;11.70;99.90
43015;DHT22;28637;50.554;7.032;2024-02-04T15:07:26;11.60;99.90
43015;DHT22;28637;50.554;7.032;2024-02-04T15:12:27;11.60;99.90
43015;DHT22;28637;50.554;7.032;2024-02-04T15:17:29;11.50;99.90
43015;DHT22;28637;50.554;7.032;2024-02-04T15:22:30;11.50;99.90
43015;DHT22;28637;50.554;7.032;2024-02-04T15:27:31;11.50;99.90
43015;DHT22;28637;50.554;7.032;2024-02-04T15:32:33;11.60;99.90
43015;DHT22;28637;50.554;7.032;2024-02-04T15:37:34;11.50;99.90
43015;DHT22;28637;50.554;7.032;2024-02-04T15:42:35;11.60;99.90
43015;DHT22;28637;50.554;7.032;2024-02-04T15:47:40;11.60;99.90
43015;DHT22;28637;50.554;7.032;2024-02-04T15:52:44;11.60;99.90
43015;DHT22;28637;50.554;7.032;2024-02-04T15:57:49;11.60;99.90
43015;DHT22;28637;50.554;7.032;2024-02-04T16:02:50;11.60;99.90
43015;DHT22;28637;50.554;7.032;2024-02-04T16:07:51;11.50;99.90
43015;DHT22;28637;50.554;7.032;2024-02-04T16:12:57;11.50;99.90
43015;DHT22;28637;50.554;7.032;2024-02-04T16:17:59;11.50;99.90
43015;DHT22;28637;50.554;7.032;2024-02-04T16:23:00;11.40;99.90
43015;DHT22;28637;50.554;7.032;2024-02-04T16:28:00;11.40;99.90
43015;DHT22;28637;50.554;7.032;2024-02-04T16:33:01;11.40;99.90
43015;DHT22;28637;50.554;7.032;2024-02-04T16:38:02;11.30;99.90
43015;DHT22;28637;50.554;7.032;2024-02-04T16:43:04;11.30;99.90
43015;DHT22;28637;50.554;7.032;2024-02-04T16:48:05;11.30;99.90
43015;DHT22;28637;50.554;7.032;2024-02-04T16:53:06;11.30;99.90
43015;DHT22;28637;50.554;7.032;2024-02-04T16:58:07;11.20;99.90
43015;DHT22;28637;50.554;7.032;2024-02-04T17:03:08;11.20;99.90
43015;DHT22;28637;50.554;7.032;2024-02-04T17:08:09;11.10;99.90
43015;DHT22;28637;50.554;7.032;2024-02-04T17:13:11;11.10;99.90
43015;DHT22;28637;50.554;7.032;2024-02-04T17:18:18;11.10;99.90
43015;DHT22;28637;50.554;7.032;2024-02-04T17:23:20;11.10;99.90
43015;DHT22;28637;50.554;7.032;2024-02-04T17:28:22;11.10;99.90
43015;DHT22;28637;50.554;7.032;2024-02-04T17:33:23;11.00;99.90
43015;DHT22;28637;50.554;7.032;2024-02-04T17:38:23;11.00;99.90
43015;DHT22;28637;50.554;7.032;2024-02-04T17:43:24;10.90;99.90
43015;DHT22;28637;50.554;7.032;2024-02-04T17:48:25;11.00;99.90
43015;DHT22;28637;50.554;7.032;2024-02-04T17:53:26;10.90;99.90
43015;DHT22;28637;50.554;7.032;2024-02-04T17:58:26;10.90;99.90
43015;DHT22;28637;50.554;7.032;2024-02-04T18:03:27;10.90;99.90
43015;DHT22;28637;50.554;7.032;2024-02-04T18:08:28;10.90;99.90
43015;DHT22;28637;50.554;7.032;2024-02-04T18:13:28;10.90;99.90
43015;DHT22;28637;50.554;7.032;2024-02-04T18:18:29;10.90;99.90
43015;DHT22;28637;50.554;7.032;2024-02-04T18:23:30;10.90;99.90
43015;DHT22;28637;50.554;7.032;2024-02-04T18:28:31;10.90;99.90
43015;DHT22;28637;50.554;7.032;2024-02-04T18:33:32;10.90;99.90
43015;DHT22;28637;50.554;7.032;2024-02-04T18:38:33;10.90;99.90
43015;DHT22;28637;50.554;7.032;2024-02-04T18:43:34;10.80;99.90
43015;DHT22;28637;50.554;7.032;2024-02-04T18:48:35;10.80;99.90
43015;DHT22;28637;50.554;7.032;2024-02-04T18:53:37;10.70;99.90
43015;DHT22;28637;50.554;7.032;2024-02-04T18:58:38;10.70;99.90
43015;DHT22;28637;50.554;7.032;2024-02-04T19:03:38;10.70;99.90
43015;DHT22;28637;50.554;7.032;2024-02-04T19:08:42;10.70;99.90
43015;DHT22;28637;50.554;7.032;2024-02-04T19:13:43;10.70;99.90
43015;DHT22;28637;50.554;7.032;2024-02-04T19:18:43;10.60;99.90
43015;DHT22;28637;50.554;7.032;2024-02-04T19:23:44;10.60;99.90
43015;DHT22;28637;50.554;7.032;2024-02-04T19:28:45;10.60;99.90
43015;DHT22;28637;50.554;7.032;2024-02-04T19:33:46;10.60;99.90
43015;DHT22;28637;50.554;7.032;2024-02-04T19:38:47;10.60;99.90
43015;DHT22;28637;50.554;7.032;2024-02-04T19:43:48;10.50;99.90
43015;DHT22;28637;50.554;7.032;2024-02-04T19:48:49;10.50;99.90
43015;DHT22;28637;50.554;7.032;2024-02-04T19:53:49;10.60;99.90
43015;DHT22;28637;50.554;7.032;2024-02-04T19:58:50;10.70;99.90
43015;DHT22;28637;50.554;7.032;2024-02-04T20:03:51;10.80;99.90
43015;DHT22;28637;50.554;7.032;2024-02-04T20:08:51;10.80;99.90
43015;DHT22;28637;50.554;7.032;2024-02-04T20:13:55;11.00;99.90
43015;DHT22;28637;50.554;7.032;2024-02-04T20:18:55;11.00;99.90
43015;DHT22;28637;50.554;7.032;2024-02-04T20:23:57;10.90;99.90
43015;DHT22;28637;50.554;7.032;2024-02-04T20:28:57;10.80;99.90
43015;DHT22;28637;50.554;7.032;2024-02-04T20:33:58;10.80;99.90
43015;DHT22;28637;50.554;7.032;2024-02-04T20:38:59;10.70;99.90
43015;DHT22;28637;50.554;7.032;2024-02-04T20:44:00;10.70;99.90
43015;DHT22;28637;50.554;7.032;2024-02-04T20:49:02;10.70;99.90
43015;DHT22;28637;50.554;7.032;2024-02-04T20:54:05;10.60;99.90
43015;DHT22;28637;50.554;7.032;2024-02-04T20:59:06;10.50;99.90
43015;DHT22;28637;50.554;7.032;2024-02-04T21:04:07;10.40;99.90
43015;DHT22;28637;50.554;7.032;2024-02-04T21:09:08;10.30;99.90
43015;DHT22;28637;50.554;7.032;2024-02-04T21:14:11;10.20;99.90
43015;DHT22;28637;50.554;7.032;2024-02-04T21:19:12;10.20;99.90
43015;DHT22;28637;50.554;7.032;2024-02-04T21:24:13;10.20;99.90
43015;DHT22;28637;50.554;7.032;2024-02-04T21:29:14;10.20;99.90
43015;DHT22;28637;50.554;7.032;2024-02-04T21:34:14;10.20;99.90
43015;DHT22;28637;50.554;7.032;2024-02-04T21:39:15;10.20;99.90
43015;DHT22;28637;50.554;7.032;2024-02-04T21:44:16;10.20;99.90
43015;DHT22;28637;50.554;7.032;2024-02-04T21:49:17;10.30;99.90
43015;DHT22;28637;50.554;7.032;2024-02-04T21:54:18;10.40;99.90
43015;DHT22;28637;50.554;7.032;2024-02-04T21:59:19;10.40;99.90
43015;DHT22;28637;50.554;7.032;2024-02-04T22:04:21;10.50;99.90
43015;DHT22;28637;50.554;7.032;2024-02-04T22:09:21;10.60;99.90
43015;DHT22;28637;50.554;7.032;2024-02-04T22:14:23;10.60;99.90
43015;DHT22;28637;50.554;7.032;2024-02-04T22:19:24;10.60;99.90
43015;DHT22;28637;50.554;7.032;2024-02-04T22:24:24;10.60;99.90
43015;DHT22;28637;50.554;7.032;2024-02-04T22:29:25;10.60;99.90
43015;DHT22;28637;50.554;7.032;2024-02-04T22:34:26;10.60;99.90
43015;DHT22;28637;50.554;7.032;2024-02-04T22:39:27;10.50;99.90
43015;DHT22;28637;50.554;7.032;2024-02-04T22:44:27;10.50;99.90
43015;DHT22;28637;50.554;7.032;2024-02-04T22:49:28;10.40;99.90
43015;DHT22;28637;50.554;7.032;2024-02-04T22:54:28;10.50;99.90
43015;DHT22;28637;50.554;7.032;2024-02-04T22:59:29;10.50;99.90
43015;DHT22;28637;50.554;7.032;2024-02-04T23:04:33;10.50;99.90
43015;DHT22;28637;50.554;7.032;2024-02-04T23:09:37;10.40;99.90
43015;DHT22;28637;50.554;7.032;2024-02-04T23:14:38;10.40;99.90
43015;DHT22;28637;50.554;7.032;2024-02-04T23:19:38;10.40;99.90
43015;DHT22;28637;50.554;7.032;2024-02-04T23:24:39;10.40;99.90
43015;DHT22;28637;50.554;7.032;2024-02-04T23:29:40;10.50;99.90
43015;DHT22;28637;50.554;7.032;2024-02-04T23:34:40;10.50;99.90
43015;DHT22;28637;50.554;7.032;2024-02-04T23:39:41;10.50;99.90
43015;DHT22;28637;50.554;7.032;2024-02-04T23:44:42;10.60;99.90
43015;DHT22;28637;50.554;7.032;2024-02-04T23:49:43;10.60;99.90
43015;DHT22;28637;50.554;7.032;2024-02-04T23:54:44;10.60;99.90
43015;DHT22;28637;50.554;7.032;2024-02-04T23:59:44;10.60;99.90
